sensor_id;sensor_type;location;lat;lon;timestamp;pressure;altitude;pressure_sealevel;temperature;humidity
60437;BME280;46289;51.992;4.498;2023-12-22T00:00:09;100391.91;;;7.50;100.00
60437;BME280;46289;51.992;4.498;2023-12-22T00:02:15;100381.56;;;7.46;100.00
60437;BME280;46289;51.992;4.498;2023-12-22T00:04:20;100394.81;;;7.65;100.00
60437;BME280;46289;51.992;4.498;2023-12-22T00:06:24;100411.69;;;7.57;100.00
60437;BME280;46289;51.992;4.498;2023-12-22T00:08:28;100417.50;;;7.65;100.00
60437;BME280;46289;51.992;4.498;2023-12-22T00:10:33;100409.09;;;7.57;100.00
60437;BME280;46289;51.992;4.498;2023-12-22T00:12:37;100411.81;;;7.54;100.00
60437;BME280;46289;51.992;4.498;2023-12-22T00:14:42;100418.25;;;7.43;100.00
60437;BME280;46289;51.992;4.498;2023-12-22T00:16:45;100408.97;;;7.60;100.00
60437;BME280;46289;51.992;4.498;2023-12-22T00:18:50;100410.03;;;7.54;100.00
60437;BME280;46289;51.992;4.498;2023-12-22T00:20:55;100426.97;;;7.69;100.00
60437;BME280;46289;51.992;4.498;2023-12-22T00:22:59;100408.97;;;7.60;100.00
60437;BME280;46289;51.992;4.498;2023-12-22T00:25:05;100410.50;;;7.65;100.00
60437;BME280;46289;51.992;4.498;2023-12-22T00:27:09;100413.56;;;7.53;100.00
60437;BME280;46289;51.992;4.498;2023-12-22T00:29:17;100402.81;;;7.61;100.00
60437;BME280;46289;51.992;4.498;2023-12-22T00:31:22;100412.16;;;7.68;100.00
60437;BME280;46289;51.992;4.498;2023-12-22T00:33:27;100453.22;;;7.66;100.00
60437;BME280;46289;51.992;4.498;2023-12-22T00:35:30;100406.97;;;7.91;100.00
60437;BME280;46289;51.992;4.498;2023-12-22T00:37:40;100406.84;;;7.95;100.00
60437;BME280;46289;51.992;4.498;2023-12-22T00:39:45;100411.50;;;7.86;100.00
60437;BME280;46289;51.992;4.498;2023-12-22T00:41:50;100415.31;;;7.78;100.00
60437;BME280;46289;51.992;4.498;2023-12-22T00:43:53;100409.34;;;7.74;100.00
60437;BME280;46289;51.992;4.498;2023-12-22T00:45:58;100431.41;;;7.67;100.00
60437;BME280;46289;51.992;4.498;2023-12-22T00:48:04;100424.00;;;7.78;100.00
60437;BME280;46289;51.992;4.498;2023-12-22T00:50:08;100434.00;;;7.67;100.00
60437;BME280;46289;51.992;4.498;2023-12-22T00:52:18;100441.28;;;7.59;100.00
60437;BME280;46289;51.992;4.498;2023-12-22T00:54:26;100437.25;;;7.74;100.00
60437;BME280;46289;51.992;4.498;2023-12-22T00:56:33;100445.06;;;7.75;100.00
60437;BME280;46289;51.992;4.498;2023-12-22T00:58:35;100442.31;;;7.78;100.00
60437;BME280;46289;51.992;4.498;2023-12-22T01:00:40;100446.81;;;7.75;100.00
60437;BME280;46289;51.992;4.498;2023-12-22T01:02:42;100445.22;;;7.70;100.00
60437;BME280;46289;51.992;4.498;2023-12-22T01:04:50;100434.59;;;7.75;100.00
60437;BME280;46289;51.992;4.498;2023-12-22T01:06:53;100432.91;;;7.74;100.00
60437;BME280;46289;51.992;4.498;2023-12-22T01:08:58;100430.47;;;7.68;100.00
60437;BME280;46289;51.992;4.498;2023-12-22T01:11:06;100454.72;;;7.73;100.00
60437;BME280;46289;51.992;4.498;2023-12-22T01:13:14;100452.09;;;7.73;100.00
60437;BME280;46289;51.992;4.498;2023-12-22T01:15:19;100440.13;;;7.66;100.00
60437;BME280;46289;51.992;4.498;2023-12-22T01:17:24;100448.09;;;7.63;100.00
60437;BME280;46289;51.992;4.498;2023-12-22T01:19:32;100455.03;;;7.64;100.00
60437;BME280;46289;51.992;4.498;2023-12-22T01:21:37;100459.00;;;7.51;100.00
60437;BME280;46289;51.992;4.498;2023-12-22T01:23:42;100460.97;;;7.69;100.00
60437;BME280;46289;51.992;4.498;2023-12-22T01:25:45;100463.59;;;7.69;100.00
60437;BME280;46289;51.992;4.498;2023-12-22T01:27:52;100459.41;;;7.63;100.00
60437;BME280;46289;51.992;4.498;2023-12-22T01:29:58;100452.50;;;7.61;100.00
60437;BME280;46289;51.992;4.498;2023-12-22T01:32:00;100449.53;;;7.46;100.00
60437;BME280;46289;51.992;4.498;2023-12-22T01:34:09;100461.53;;;7.52;100.00
60437;BME280;46289;51.992;4.498;2023-12-22T01:36:16;100477.44;;;7.71;100.00
60437;BME280;46289;51.992;4.498;2023-12-22T01:38:21;100496.88;;;7.64;100.00
60437;BME280;46289;51.992;4.498;2023-12-22T01:40:26;100493.50;;;7.60;100.00
60437;BME280;46289;51.992;4.498;2023-12-22T01:42:31;100493.84;;;7.50;100.00
60437;BME280;46289;51.992;4.498;2023-12-22T01:44:36;100481.97;;;7.66;100.00
60437;BME280;46289;51.992;4.498;2023-12-22T01:46:42;100471.34;;;7.70;100.00
60437;BME280;46289;51.992;4.498;2023-12-22T01:48:48;100460.06;;;7.70;100.00
60437;BME280;46289;51.992;4.498;2023-12-22T01:50:51;100466.81;;;7.76;100.00
60437;BME280;46289;51.992;4.498;2023-12-22T01:52:56;100460.25;;;7.89;100.00
60437;BME280;46289;51.992;4.498;2023-12-22T01:55:01;100474.41;;;7.83;100.00
60437;BME280;46289;51.992;4.498;2023-12-22T01:57:06;100473.59;;;7.81;100.00
60437;BME280;46289;51.992;4.498;2023-12-22T01:59:12;100483.22;;;7.81;100.00
60437;BME280;46289;51.992;4.498;2023-12-22T02:01:20;100461.97;;;7.90;100.00
60437;BME280;46289;51.992;4.498;2023-12-22T02:03:23;100457.78;;;7.84;100.00
60437;BME280;46289;51.992;4.498;2023-12-22T02:05:28;100471.06;;;7.80;100.00
60437;BME280;46289;51.992;4.498;2023-12-22T02:07:33;100474.13;;;7.91;100.00
60437;BME280;46289;51.992;4.498;2023-12-22T02:09:38;100473.78;;;8.00;100.00
60437;BME280;46289;51.992;4.498;2023-12-22T02:11:43;100470.81;;;8.11;100.00
60437;BME280;46289;51.992;4.498;2023-12-22T02:13:51;100470.22;;;8.03;100.00
60437;BME280;46289;51.992;4.498;2023-12-22T02:16:00;100488.88;;;7.94;100.00
60437;BME280;46289;51.992;4.498;2023-12-22T02:18:13;100476.59;;;7.96;100.00
60437;BME280;46289;51.992;4.498;2023-12-22T02:20:19;100482.84;;;7.91;100.00
60437;BME280;46289;51.992;4.498;2023-12-22T02:22:31;100464.63;;;7.88;100.00
60437;BME280;46289;51.992;4.498;2023-12-22T02:24:40;100481.59;;;8.02;100.00
60437;BME280;46289;51.992;4.498;2023-12-22T02:26:45;100475.53;;;8.01;100.00
60437;BME280;46289;51.992;4.498;2023-12-22T02:28:55;100471.03;;;8.05;100.00
60437;BME280;46289;51.992;4.498;2023-12-22T02:31:04;100453.63;;;8.04;100.00
60437;BME280;46289;51.992;4.498;2023-12-22T02:33:13;100486.59;;;8.08;100.00
60437;BME280;46289;51.992;4.498;2023-12-22T02:35:25;100483.91;;;8.11;100.00
60437;BME280;46289;51.992;4.498;2023-12-22T02:37:34;100492.19;;;7.99;100.00
60437;BME280;46289;51.992;4.498;2023-12-22T02:39:38;100488.66;;;8.00;100.00
60437;BME280;46289;51.992;4.498;2023-12-22T02:41:45;100481.78;;;8.21;100.00
60437;BME280;46289;51.992;4.498;2023-12-22T02:43:51;100469.09;;;8.10;100.00
60437;BME280;46289;51.992;4.498;2023-12-22T02:45:56;100467.13;;;8.17;100.00
60437;BME280;46289;51.992;4.498;2023-12-22T02:48:01;100463.88;;;8.10;100.00
60437;BME280;46289;51.992;4.498;2023-12-22T02:50:07;100455.66;;;7.96;100.00
60437;BME280;46289;51.992;4.498;2023-12-22T02:52:13;100453.75;;;8.01;100.00
60437;BME280;46289;51.992;4.498;2023-12-22T02:54:20;100460.69;;;8.02;100.00
60437;BME280;46289;51.992;4.498;2023-12-22T02:56:31;100464.28;;;7.98;100.00
60437;BME280;46289;51.992;4.498;2023-12-22T02:58:36;100470.13;;;8.06;100.00
60437;BME280;46289;51.992;4.498;2023-12-22T03:00:44;100474.56;;;8.04;100.00
60437;BME280;46289;51.992;4.498;2023-12-22T03:02:51;100459.88;;;8.00;100.00
60437;BME280;46289;51.992;4.498;2023-12-22T03:04:56;100474.56;;;8.04;100.00
60437;BME280;46289;51.992;4.498;2023-12-22T03:07:02;100476.06;;;8.11;100.00
60437;BME280;46289;51.992;4.498;2023-12-22T03:09:07;100487.53;;;8.07;100.00
60437;BME280;46289;51.992;4.498;2023-12-22T03:11:20;100470.91;;;8.08;100.00
60437;BME280;46289;51.992;4.498;2023-12-22T03:13:26;100469.94;;;8.10;100.00
60437;BME280;46289;51.992;4.498;2023-12-22T03:15:31;100467.28;;;8.12;100.00
60437;BME280;46289;51.992;4.498;2023-12-22T03:17:36;100472.63;;;8.09;100.00
60437;BME280;46289;51.992;4.498;2023-12-22T03:19:41;100470.06;;;8.07;100.00
60437;BME280;46289;51.992;4.498;2023-12-22T03:21:51;100473.72;;;8.03;100.00
60437;BME280;46289;51.992;4.498;2023-12-22T03:23:57;100476.06;;;8.11;100.00
60437;BME280;46289;51.992;4.498;2023-12-22T03:26:02;100484.91;;;8.07;100.00
60437;BME280;46289;51.992;4.498;2023-12-22T03:28:10;100480.28;;;8.13;100.00
60437;BME280;46289;51.992;4.498;2023-12-22T03:30:15;100472.41;;;8.15;100.00
60437;BME280;46289;51.992;4.498;2023-12-22T03:32:20;100472.63;;;8.09;100.00
60437;BME280;46289;51.992;4.498;2023-12-22T03:34:25;100466.06;;;7.97;100.00
60437;BME280;46289;51.992;4.498;2023-12-22T03:36:32;100464.97;;;8.03;100.00
60437;BME280;46289;51.992;4.498;2023-12-22T03:38:37;100459.19;;;8.18;100.00
60437;BME280;46289;51.992;4.498;2023-12-22T03:40:42;100460.34;;;8.11;100.00
60437;BME280;46289;51.992;4.498;2023-12-22T03:42:47;100450.53;;;8.16;100.00
60437;BME280;46289;51.992;4.498;2023-12-22T03:44:54;100463.88;;;8.33;100.00
60437;BME280;46289;51.992;4.498;2023-12-22T03:46:59;100454.94;;;8.16;100.00
60437;BME280;46289;51.992;4.498;2023-12-22T03:49:04;100448.88;;;8.13;100.00
60437;BME280;46289;51.992;4.498;2023-12-22T03:51:11;100461.94;;;8.15;100.00
60437;BME280;46289;51.992;4.498;2023-12-22T03:53:18;100465.25;;;8.20;100.00
60437;BME280;46289;51.992;4.498;2023-12-22T03:55:26;100468.09;;;8.14;100.00
60437;BME280;46289;51.992;4.498;2023-12-22T03:57:31;100452.69;;;8.30;100.00
60437;BME280;46289;51.992;4.498;2023-12-22T03:59:36;100471.00;;;8.30;100.00
60437;BME280;46289;51.992;4.498;2023-12-22T04:01:47;100462.31;;;8.29;100.00
60437;BME280;46289;51.992;4.498;2023-12-22T04:03:55;100462.31;;;8.29;100.00
60437;BME280;46289;51.992;4.498;2023-12-22T04:05:58;100486.75;;;8.28;100.00
60437;BME280;46289;51.992;4.498;2023-12-22T04:08:03;100461.53;;;8.26;100.00
60437;BME280;46289;51.992;4.498;2023-12-22T04:10:10;100460.53;;;8.30;100.00
60437;BME280;46289;51.992;4.498;2023-12-22T04:12:17;100477.09;;;8.30;100.00
60437;BME280;46289;51.992;4.498;2023-12-22T04:14:22;100465.06;;;8.25;100.00
60437;BME280;46289;51.992;4.498;2023-12-22T04:16:27;100464.81;;;8.32;100.00
60437;BME280;46289;51.992;4.498;2023-12-22T04:18:37;100475.16;;;8.35;100.00
60437;BME280;46289;51.992;4.498;2023-12-22T04:20:42;100477.13;;;8.29;100.00
60437;BME280;46289;51.992;4.498;2023-12-22T04:22:48;100489.47;;;8.25;100.00
60437;BME280;46289;51.992;4.498;2023-12-22T04:24:53;100491.31;;;8.23;100.00
60437;BME280;46289;51.992;4.498;2023-12-22T04:26:55;100475.38;;;8.29;100.00
60437;BME280;46289;51.992;4.498;2023-12-22T04:29:00;100468.31;;;8.31;100.00
60437;BME280;46289;51.992;4.498;2023-12-22T04:31:05;100472.78;;;8.29;100.00
60437;BME280;46289;51.992;4.498;2023-12-22T04:33:10;100487.22;;;8.40;100.00
60437;BME280;46289;51.992;4.498;2023-12-22T04:35:18;100482.00;;;8.40;100.00
60437;BME280;46289;51.992;4.498;2023-12-22T04:37:23;100472.13;;;8.48;100.00
60437;BME280;46289;51.992;4.498;2023-12-22T04:39:36;100474.94;;;8.42;100.00
60437;BME280;46289;51.992;4.498;2023-12-22T04:41:43;100478.50;;;8.41;100.00
60437;BME280;46289;51.992;4.498;2023-12-22T04:43:46;100464.53;;;8.40;100.00
60437;BME280;46289;51.992;4.498;2023-12-22T04:45:51;100461.22;;;8.35;100.00
60437;BME280;46289;51.992;4.498;2023-12-22T04:47:56;100470.50;;;8.44;100.00
60437;BME280;46289;51.992;4.498;2023-12-22T04:50:01;100473.25;;;8.41;100.00
60437;BME280;46289;51.992;4.498;2023-12-22T04:52:10;100471.53;;;8.40;100.00
60437;BME280;46289;51.992;4.498;2023-12-22T04:54:18;100467.91;;;8.44;100.00
60437;BME280;46289;51.992;4.498;2023-12-22T04:56:24;100479.22;;;8.44;100.00
60437;BME280;46289;51.992;4.498;2023-12-22T04:58:31;100474.81;;;8.45;100.00
60437;BME280;46289;51.992;4.498;2023-12-22T05:00:36;100492.47;;;8.40;100.00
60437;BME280;46289;51.992;4.498;2023-12-22T05:02:41;100487.31;;;8.36;100.00
60437;BME280;46289;51.992;4.498;2023-12-22T05:04:47;100481.28;;;8.34;100.00
60437;BME280;46289;51.992;4.498;2023-12-22T05:06:49;100488.59;;;8.50;100.00
60437;BME280;46289;51.992;4.498;2023-12-22T05:08:57;100484.13;;;8.53;100.00
60437;BME280;46289;51.992;4.498;2023-12-22T05:11:02;100480.06;;;8.45;100.00
60437;BME280;46289;51.992;4.498;2023-12-22T05:13:07;100479.84;;;8.51;100.00
60437;BME280;46289;51.992;4.498;2023-12-22T05:15:12;100479.22;;;8.44;100.00
60437;BME280;46289;51.992;4.498;2023-12-22T05:17:17;100487.28;;;8.38;100.00
60437;BME280;46289;51.992;4.498;2023-12-22T05:19:23;100474.81;;;8.45;100.00
60437;BME280;46289;51.992;4.498;2023-12-22T05:21:28;100464.34;;;8.45;100.00
60437;BME280;46289;51.992;4.498;2023-12-22T05:23:33;100468.94;;;8.38;100.00
60437;BME280;46289;51.992;4.498;2023-12-22T05:25:38;100471.78;;;8.32;100.00
60437;BME280;46289;51.992;4.498;2023-12-22T05:27:45;100469.78;;;8.39;100.00
60437;BME280;46289;51.992;4.498;2023-12-22T05:29:51;100458.44;;;8.40;100.00
60437;BME280;46289;51.992;4.498;2023-12-22T05:31:56;100455.06;;;8.36;100.00
60437;BME280;46289;51.992;4.498;2023-12-22T05:34:03;100466.44;;;8.35;100.00
60437;BME280;46289;51.992;4.498;2023-12-22T05:36:08;100458.47;;;8.38;100.00
60437;BME280;46289;51.992;4.498;2023-12-22T05:38:13;100462.66;;;8.44;100.00
60437;BME280;46289;51.992;4.498;2023-12-22T05:40:18;100458.38;;;8.41;100.00
60437;BME280;46289;51.992;4.498;2023-12-22T05:42:26;100460.09;;;8.42;100.00
60437;BME280;46289;51.992;4.498;2023-12-22T05:44:31;100466.81;;;8.49;100.00
60437;BME280;46289;51.992;4.498;2023-12-22T05:46:37;100468.44;;;8.52;100.00
60437;BME280;46289;51.992;4.498;2023-12-22T05:48:40;100451.34;;;8.43;100.00
60437;BME280;46289;51.992;4.498;2023-12-22T05:50:45;100460.03;;;8.44;100.00
60437;BME280;46289;51.992;4.498;2023-12-22T05:52:50;100452.06;;;8.47;100.00
60437;BME280;46289;51.992;4.498;2023-12-22T05:54:57;100461.69;;;8.46;100.00
60437;BME280;46289;51.992;4.498;2023-12-22T05:57:05;100460.03;;;8.44;100.00
60437;BME280;46289;51.992;4.498;2023-12-22T05:59:12;100463.22;;;8.52;100.00
60437;BME280;46289;51.992;4.498;2023-12-22T06:01:18;100466.75;;;8.51;100.00
60437;BME280;46289;51.992;4.498;2023-12-22T06:03:24;100463.34;;;8.49;100.00
60437;BME280;46289;51.992;4.498;2023-12-22T06:05:32;100469.94;;;8.59;100.00
60437;BME280;46289;51.992;4.498;2023-12-22T06:07:38;100482.09;;;8.60;100.00
60437;BME280;46289;51.992;4.498;2023-12-22T06:09:40;100483.03;;;8.59;100.00
60437;BME280;46289;51.992;4.498;2023-12-22T06:11:45;100476.94;;;8.59;100.00
60437;BME280;46289;51.992;4.498;2023-12-22T06:13:48;100478.59;;;8.61;100.00
60437;BME280;46289;51.992;4.498;2023-12-22T06:15:57;100475.84;;;8.64;100.00
60437;BME280;46289;51.992;4.498;2023-12-22T06:18:03;100477.66;;;8.62;100.00
60437;BME280;46289;51.992;4.498;2023-12-22T06:20:10;100483.72;;;8.64;100.00
60437;BME280;46289;51.992;4.498;2023-12-22T06:22:15;100471.50;;;8.63;100.00
60437;BME280;46289;51.992;4.498;2023-12-22T06:24:20;100493.25;;;8.65;100.00
60437;BME280;46289;51.992;4.498;2023-12-22T06:26:25;100494.00;;;8.69;100.00
60437;BME280;46289;51.992;4.498;2023-12-22T06:28:30;100481.09;;;8.64;100.00
60437;BME280;46289;51.992;4.498;2023-12-22T06:30:38;100479.50;;;8.60;100.00
60437;BME280;46289;51.992;4.498;2023-12-22T06:32:47;100481.25;;;8.60;100.00
60437;BME280;46289;51.992;4.498;2023-12-22T06:34:53;100474.25;;;8.60;100.00
60437;BME280;46289;51.992;4.498;2023-12-22T06:36:58;100478.53;;;8.63;100.00
60437;BME280;46289;51.992;4.498;2023-12-22T06:39:02;100479.06;;;8.71;100.00
60437;BME280;46289;51.992;4.498;2023-12-22T06:41:18;100488.19;;;8.61;100.00
60437;BME280;46289;51.992;4.498;2023-12-22T06:43:30;100479.28;;;8.66;100.00
60437;BME280;46289;51.992;4.498;2023-12-22T06:45:35;100473.13;;;8.67;100.00
60437;BME280;46289;51.992;4.498;2023-12-22T06:47:41;100469.69;;;8.65;100.00
60437;BME280;46289;51.992;4.498;2023-12-22T06:49:51;100474.31;;;8.59;100.00
60437;BME280;46289;51.992;4.498;2023-12-22T06:51:56;100474.38;;;8.57;100.00
60437;BME280;46289;51.992;4.498;2023-12-22T06:53:59;100467.88;;;8.67;100.00
60437;BME280;46289;51.992;4.498;2023-12-22T06:56:14;100460.69;;;8.72;100.00
60437;BME280;46289;51.992;4.498;2023-12-22T06:58:21;100461.72;;;8.68;100.00
60437;BME280;46289;51.992;4.498;2023-12-22T07:00:29;100459.03;;;8.70;100.00
60437;BME280;46289;51.992;4.498;2023-12-22T07:02:35;100456.41;;;8.70;100.00
60437;BME280;46289;51.992;4.498;2023-12-22T07:05:05;100466.81;;;8.71;100.00
60437;BME280;46289;51.992;4.498;2023-12-22T07:07:29;100444.19;;;8.70;100.00
60437;BME280;46289;51.992;4.498;2023-12-22T07:09:36;100443.50;;;8.65;100.00
60437;BME280;46289;51.992;4.498;2023-12-22T07:11:43;100474.75;;;8.70;100.00
60437;BME280;46289;51.992;4.498;2023-12-22T07:13:48;100452.19;;;8.66;100.00
60437;BME280;46289;51.992;4.498;2023-12-22T07:15:53;100465.00;;;8.73;100.00
60437;BME280;46289;51.992;4.498;2023-12-22T07:17:58;100448.56;;;8.70;100.00
60437;BME280;46289;51.992;4.498;2023-12-22T07:20:07;100448.72;;;8.65;100.00
60437;BME280;46289;51.992;4.498;2023-12-22T07:22:16;100458.13;;;8.71;100.00
60437;BME280;46289;51.992;4.498;2023-12-22T07:24:21;100458.13;;;8.71;100.00
60437;BME280;46289;51.992;4.498;2023-12-22T07:26:26;100461.00;;;8.65;100.00
60437;BME280;46289;51.992;4.498;2023-12-22T07:28:31;100453.09;;;8.66;100.00
60437;BME280;46289;51.992;4.498;2023-12-22T07:30:39;100457.44;;;8.66;100.00
60437;BME280;46289;51.992;4.498;2023-12-22T07:32:43;100453.94;;;8.67;100.00
60437;BME280;46289;51.992;4.498;2023-12-22T07:34:50;100452.41;;;8.61;100.00
60437;BME280;46289;51.992;4.498;2023-12-22T07:37:03;100457.81;;;8.56;100.00
60437;BME280;46289;51.992;4.498;2023-12-22T07:39:14;100453.41;;;8.57;100.00
60437;BME280;46289;51.992;4.498;2023-12-22T07:41:22;100456.00;;;8.59;100.00
60437;BME280;46289;51.992;4.498;2023-12-22T07:43:28;100455.13;;;8.58;100.00
60437;BME280;46289;51.992;4.498;2023-12-22T07:45:46;100461.28;;;8.57;100.00
60437;BME280;46289;51.992;4.498;2023-12-22T07:47:57;100451.81;;;8.53;100.00
60437;BME280;46289;51.992;4.498;2023-12-22T07:50:01;100439.31;;;8.61;100.00
60437;BME280;46289;51.992;4.498;2023-12-22T07:52:13;100459.28;;;8.64;100.00
60437;BME280;46289;51.992;4.498;2023-12-22T07:54:19;100455.78;;;8.63;100.00
60437;BME280;46289;51.992;4.498;2023-12-22T07:56:28;100461.03;;;8.63;100.00
60437;BME280;46289;51.992;4.498;2023-12-22T07:58:33;100458.31;;;8.66;100.00
60437;BME280;46289;51.992;4.498;2023-12-22T08:00:38;100450.50;;;8.65;100.00
60437;BME280;46289;51.992;4.498;2023-12-22T08:02:49;100453.84;;;8.68;100.00
60437;BME280;46289;51.992;4.498;2023-12-22T08:04:58;100448.56;;;8.70;100.00
60437;BME280;46289;51.992;4.498;2023-12-22T08:07:03;100445.94;;;8.70;100.00
60437;BME280;46289;51.992;4.498;2023-12-22T08:09:09;100447.72;;;8.69;100.00
60437;BME280;46289;51.992;4.498;2023-12-22T08:11:15;100443.25;;;8.71;100.00
60437;BME280;46289;51.992;4.498;2023-12-22T08:13:21;100453.69;;;8.73;100.00
60437;BME280;46289;51.992;4.498;2023-12-22T08:15:28;100445.16;;;8.68;100.00
60437;BME280;46289;51.992;4.498;2023-12-22T08:17:39;100438.94;;;8.70;100.00
60437;BME280;46289;51.992;4.498;2023-12-22T08:19:50;100432.72;;;8.73;100.00
60437;BME280;46289;51.992;4.498;2023-12-22T08:22:07;100446.44;;;8.79;100.00
60437;BME280;46289;51.992;4.498;2023-12-22T08:24:15;100445.66;;;8.77;100.00
60437;BME280;46289;51.992;4.498;2023-12-22T08:26:25;100454.19;;;8.83;100.00
60437;BME280;46289;51.992;4.498;2023-12-22T08:28:33;100453.09;;;8.88;100.00
60437;BME280;46289;51.992;4.498;2023-12-22T08:30:38;100455.63;;;8.90;100.00
60437;BME280;46289;51.992;4.498;2023-12-22T08:32:40;100453.00;;;8.90;100.00
60437;BME280;46289;51.992;4.498;2023-12-22T08:34:46;100447.97;;;8.85;100.00
60437;BME280;46289;51.992;4.498;2023-12-22T08:36:48;100452.72;;;8.75;100.00
60437;BME280;46289;51.992;4.498;2023-12-22T08:38:54;100442.22;;;8.75;100.00
60437;BME280;46289;51.992;4.498;2023-12-22T08:41:02;100445.56;;;8.79;100.00
60437;BME280;46289;51.992;4.498;2023-12-22T08:43:10;100435.00;;;8.82;100.00
60437;BME280;46289;51.992;4.498;2023-12-22T08:45:15;100440.81;;;8.89;100.00
60437;BME280;46289;51.992;4.498;2023-12-22T08:47:20;100435.41;;;8.93;100.00
60437;BME280;46289;51.992;4.498;2023-12-22T08:49:25;100442.47;;;8.91;100.00
60437;BME280;46289;51.992;4.498;2023-12-22T08:51:30;100444.16;;;8.92;100.00
60437;BME280;46289;51.992;4.498;2023-12-22T08:53:33;100433.69;;;8.92;100.00
60437;BME280;46289;51.992;4.498;2023-12-22T08:55:39;100442.28;;;8.96;100.00
60437;BME280;46289;51.992;4.498;2023-12-22T08:57:46;100439.50;;;9.00;100.00
60437;BME280;46289;51.992;4.498;2023-12-22T09:00:04;100437.50;;;9.06;100.00
60437;BME280;46289;51.992;4.498;2023-12-22T09:02:09;100419.91;;;9.09;100.00
60437;BME280;46289;51.992;4.498;2023-12-22T09:04:17;100434.59;;;9.13;100.00
60437;BME280;46289;51.992;4.498;2023-12-22T09:06:25;100445.72;;;9.18;100.00
60437;BME280;46289;51.992;4.498;2023-12-22T09:08:28;100444.84;;;9.19;100.00
60437;BME280;46289;51.992;4.498;2023-12-22T09:10:33;100442.94;;;9.23;100.00
60437;BME280;46289;51.992;4.498;2023-12-22T09:12:38;100449.88;;;9.24;100.00
60437;BME280;46289;51.992;4.498;2023-12-22T09:14:43;100438.41;;;9.27;100.00
60437;BME280;46289;51.992;4.498;2023-12-22T09:16:47;100437.63;;;9.25;100.00
60437;BME280;46289;51.992;4.498;2023-12-22T09:18:53;100436.72;;;9.26;100.00
60437;BME280;46289;51.992;4.498;2023-12-22T09:20:58;100434.63;;;9.34;100.00
60437;BME280;46289;51.992;4.498;2023-12-22T09:23:01;100430.31;;;9.33;100.00
60437;BME280;46289;51.992;4.498;2023-12-22T09:25:08;100444.06;;;9.38;100.00
60437;BME280;46289;51.992;4.498;2023-12-22T09:27:14;100444.06;;;9.38;100.00
60437;BME280;46289;51.992;4.498;2023-12-22T09:29:18;100444.84;;;9.40;100.00
60437;BME280;46289;51.992;4.498;2023-12-22T09:31:29;100448.34;;;9.40;100.00
60437;BME280;46289;51.992;4.498;2023-12-22T09:33:35;100450.75;;;9.45;100.00
60437;BME280;46289;51.992;4.498;2023-12-22T09:35:41;100448.13;;;9.45;100.00
60437;BME280;46289;51.992;4.498;2023-12-22T09:37:46;100463.09;;;9.43;100.00
60437;BME280;46289;51.992;4.498;2023-12-22T09:39:52;100463.69;;;9.50;100.00
60437;BME280;46289;51.992;4.498;2023-12-22T09:41:58;100442.63;;;9.51;100.00
60437;BME280;46289;51.992;4.498;2023-12-22T09:44:04;100455.00;;;9.48;100.00
60437;BME280;46289;51.992;4.498;2023-12-22T09:46:11;100463.75;;;9.48;100.00
60437;BME280;46289;51.992;4.498;2023-12-22T09:48:20;100469.72;;;9.52;100.00
60437;BME280;46289;51.992;4.498;2023-12-22T09:50:32;100467.03;;;9.53;100.00
60437;BME280;46289;51.992;4.498;2023-12-22T09:52:38;100467.03;;;9.53;100.00
60437;BME280;46289;51.992;4.498;2023-12-22T09:54:47;100455.63;;;9.54;100.00
60437;BME280;46289;51.992;4.498;2023-12-22T09:56:50;100454.56;;;9.58;100.00
60437;BME280;46289;51.992;4.498;2023-12-22T09:58:56;100447.47;;;9.60;100.00
60437;BME280;46289;51.992;4.498;2023-12-22T10:01:02;100453.34;;;9.67;100.00
60437;BME280;46289;51.992;4.498;2023-12-22T10:03:12;100462.09;;;9.66;100.00
60437;BME280;46289;51.992;4.498;2023-12-22T10:05:20;100461.25;;;9.65;100.00
60437;BME280;46289;51.992;4.498;2023-12-22T10:07:26;100454.88;;;9.71;100.00
60437;BME280;46289;51.992;4.498;2023-12-22T10:09:32;100464.34;;;9.75;100.00
60437;BME280;46289;51.992;4.498;2023-12-22T10:11:38;100460.75;;;9.78;100.00
60437;BME280;46289;51.992;4.498;2023-12-22T10:13:44;100458.25;;;9.75;100.00
60437;BME280;46289;51.992;4.498;2023-12-22T10:15:52;100452.03;;;9.77;100.00
60437;BME280;46289;51.992;4.498;2023-12-22T10:17:57;100462.50;;;9.77;100.00
60437;BME280;46289;51.992;4.498;2023-12-22T10:20:03;100466.78;;;9.80;100.00
60437;BME280;46289;51.992;4.498;2023-12-22T10:22:14;100471.94;;;9.81;100.00
60437;BME280;46289;51.992;4.498;2023-12-22T10:24:37;100472.78;;;9.82;100.00
60437;BME280;46289;51.992;4.498;2023-12-22T10:26:44;100470.81;;;9.87;100.00
60437;BME280;46289;51.992;4.498;2023-12-22T10:28:50;100469.84;;;9.89;100.00
60437;BME280;46289;51.992;4.498;2023-12-22T10:30:56;100472.53;;;9.88;100.00
60437;BME280;46289;51.992;4.498;2023-12-22T10:33:08;100468.84;;;9.92;100.00
60437;BME280;46289;51.992;4.498;2023-12-22T10:35:13;100470.75;;;9.88;100.00
60437;BME280;46289;51.992;4.498;2023-12-22T10:37:22;100485.53;;;9.91;100.00
60437;BME280;46289;51.992;4.498;2023-12-22T10:39:34;100489.72;;;9.95;100.00
60437;BME280;46289;51.992;4.498;2023-12-22T10:41:40;100485.34;;;9.96;100.00
60437;BME280;46289;51.992;4.498;2023-12-22T10:43:42;100477.47;;;9.96;100.00
60437;BME280;46289;51.992;4.498;2023-12-22T10:45:48;100474.84;;;9.96;100.00
60437;BME280;46289;51.992;4.498;2023-12-22T10:47:54;100486.19;;;9.96;100.00
60437;BME280;46289;51.992;4.498;2023-12-22T10:50:02;100471.22;;;9.98;100.00
60437;BME280;46289;51.992;4.498;2023-12-22T10:52:10;100467.66;;;9.99;100.00
60437;BME280;46289;51.992;4.498;2023-12-22T10:54:30;100472.91;;;9.99;100.00
60437;BME280;46289;51.992;4.498;2023-12-22T10:56:37;100486.91;;;10.00;100.00
60437;BME280;46289;51.992;4.498;2023-12-22T10:58:43;100485.91;;;10.02;100.00
60437;BME280;46289;51.992;4.498;2023-12-22T11:00:51;100472.97;;;9.98;100.00